Creal Springs, IL (62922)

10:08 AM CDT on April 21, 2015 (GMT -0500)
WB0VTM - HAM RADIO | | Change Station
CLOSE
Current Station
Personal Weather Station
Location: Marion, IL
Elevation: 492 ft
Nearby Weather Stations

Elev 492 ft 37.72 °N, 88.95 °W | Updated 2 minutes ago

Clear
Clear
64.9 °F
Feels Like 64.9 °F
N
6.3
Wind Variable Wind from WSW

Today
High -- | Low -- °F
--% Chance of Precip.
Yesterday
High -- | Low -- °F
Precip. -- in
6:12 AM 7:36 PM
Waxing Crescent, 11% visible
Pressure 29.91 in
Visibility 20.0 miles
Clouds Clear
Dew Point 46 °F
Humidity 51%
Rainfall 0.00 in
Snow Depth Not available.
UV 5 out of 12
Pollen 10.10 out of 12
Air Quality Not available.
Flu Activity Regional
METAR KMWA 211452Z 24010KT 20SM SKC 15/03 A2991

More Conditions Fewer Conditions

Pressure 29.91 in
Visibility 20.0 miles
Clouds Clear
Dew Point 46 °F
Humidity 51%
Rainfall 0.00 in
Snow Depth Not available.
UV 5 out of 12
Pollen 10.10 out of 12
Air Quality Not available.
Flu Activity Regional
METAR KMWA 211452Z 24010KT 20SM SKC 15/03 A2991

More Conditions Fewer Conditions

10-Day Weather Forecast

Almanac

Astronomy

Apr. 21, 2015 Rise Set
Actual Time
Civil Twilight
Nautical Twilight
Astronomical Twilight
Moon
Length of Visible Light
Length of Day
Tomorrow will be .
, % of the Moon is Illuminated

Today's Extremes

State Highs State Lows

Community

WunderPhotos

Upload Photos

1,815,418 photos uploaded!

WunderBlogs® & News

Nearby

Air Quality

  Air Quality AQ Index Pollutant
Not available.

Snow Depth

Station Depth Elevation

Earthquake Activity

City Distance Mag. Time & Date
Minimum magnitude displayed is 2.5.

Coastal Water Temperatures

Place Temperature

Stations

Nearby Weather Stations

Station Location Temp. Windchill Dew Point Humidity Wind Precip. Elev Updated Type